createdAt,value
2017-09-10T00:01:34.602Z,59.40
2017-09-10T00:04:02.718Z,58.20
2017-09-10T00:06:31.279Z,59.80
2017-09-10T00:08:59.359Z,61.00
2017-09-10T00:11:27.621Z,62.10
2017-09-10T00:13:56.085Z,62.30
2017-09-10T00:16:24.189Z,63.00
2017-09-10T00:18:52.299Z,64.20
2017-09-10T00:21:20.423Z,65.10
2017-09-10T00:23:48.599Z,65.50
2017-09-10T00:26:16.774Z,65.10
2017-09-10T00:28:44.947Z,65.70
2017-09-10T00:31:13.531Z,65.40
2017-09-10T00:33:41.711Z,66.20
2017-09-10T00:36:09.874Z,65.90
2017-09-10T00:38:38.055Z,65.20
2017-09-10T00:41:06.568Z,65.70
2017-09-10T00:43:35.427Z,68.20
2017-09-10T00:46:03.603Z,68.60
2017-09-10T00:48:32.471Z,69.60
2017-09-10T00:51:00.547Z,70.50
2017-09-10T00:53:30.276Z,70.80
2017-09-10T00:55:58.360Z,70.60
2017-09-10T00:58:26.449Z,70.50
2017-09-10T01:00:55.306Z,70.30
2017-09-10T01:03:23.483Z,71.00
2017-09-10T01:05:51.567Z,72.40
2017-09-10T01:08:19.731Z,72.70
2017-09-10T01:10:48.206Z,72.80
2017-09-10T01:13:16.288Z,71.80
2017-09-10T01:15:44.411Z,72.10
2017-09-10T01:18:12.534Z,72.10
2017-09-10T01:20:40.607Z,72.90
2017-09-10T01:23:08.778Z,73.60
2017-09-10T01:25:36.875Z,73.80
2017-09-10T01:28:05.844Z,75.00
2017-09-10T01:30:34.015Z,75.20
2017-09-10T01:33:02.190Z,75.30
2017-09-10T01:35:30.364Z,74.80
2017-09-10T01:37:58.530Z,76.10
2017-09-10T01:40:26.706Z,75.90
2017-09-10T01:42:54.782Z,76.50
2017-09-10T01:45:22.950Z,76.90
2017-09-10T01:47:51.127Z,77.00
2017-09-10T01:50:19.202Z,77.70
2017-09-10T01:52:47.374Z,78.60
2017-09-10T01:55:15.553Z,79.30
2017-09-10T01:57:43.626Z,79.30
2017-09-10T02:00:11.790Z,79.10
2017-09-10T02:02:39.965Z,78.80
2017-09-10T02:05:08.049Z,79.00
2017-09-10T02:07:36.215Z,79.10
2017-09-10T02:10:04.390Z,78.70
2017-09-10T02:12:32.488Z,78.70
2017-09-10T02:15:00.635Z,78.30
2017-09-10T02:17:29.499Z,77.90
2017-09-10T02:19:57.605Z,78.20
2017-09-10T02:22:25.679Z,78.70
2017-09-10T02:24:53.753Z,79.30
2017-09-10T02:27:21.918Z,78.70
2017-09-10T02:29:50.090Z,78.60
2017-09-10T02:32:18.166Z,79.50
2017-09-10T02:34:46.747Z,79.30
2017-09-10T02:37:15.656Z,79.60
2017-09-10T02:39:43.824Z,80.10
2017-09-10T02:42:11.903Z,80.10
2017-09-10T02:44:40.059Z,80.70
2017-09-10T02:47:08.233Z,80.20
2017-09-10T02:49:36.406Z,81.10
2017-09-10T02:52:04.503Z,79.40
2017-09-10T02:54:32.583Z,79.80
2017-09-10T02:57:01.542Z,79.70
2017-09-10T02:59:30.013Z,78.60
2017-09-10T03:01:58.093Z,78.50
2017-09-10T03:04:26.276Z,79.00
2017-09-10T03:06:54.351Z,79.50
2017-09-10T03:09:22.520Z,79.70
2017-09-10T03:11:50.622Z,78.10
2017-09-10T03:14:19.588Z,77.80
2017-09-10T03:16:47.758Z,77.60
2017-09-10T03:19:15.930Z,77.30
2017-09-10T03:21:44.518Z,76.50
2017-09-10T03:24:12.614Z,76.80
2017-09-10T03:26:41.578Z,78.00
2017-09-10T03:29:09.754Z,77.20
2017-09-10T03:31:38.651Z,77.50
2017-09-10T03:34:06.817Z,77.50
2017-09-10T03:36:34.922Z,77.10
2017-09-10T03:39:03.797Z,76.60
2017-09-10T03:41:31.962Z,76.60
2017-09-10T03:44:00.130Z,76.50
2017-09-10T03:46:28.302Z,77.50
2017-09-10T03:48:56.482Z,77.70
2017-09-10T03:51:24.971Z,77.50
2017-09-10T03:53:53.133Z,76.60
2017-09-10T03:56:21.307Z,76.20
2017-09-10T03:58:49.386Z,76.50
2017-09-10T04:01:17.467Z,77.30
2017-09-10T04:03:45.626Z,77.40
2017-09-10T04:06:14.519Z,77.50
2017-09-10T04:08:42.615Z,77.00
2017-09-10T04:11:10.762Z,77.10
2017-09-10T04:13:38.843Z,77.10
2017-09-10T04:16:06.918Z,77.20
2017-09-10T04:18:35.082Z,76.20
2017-09-10T04:21:03.255Z,76.80
2017-09-10T04:23:31.426Z,76.70
2017-09-10T04:25:59.602Z,76.40
2017-09-10T04:28:27.780Z,76.60
2017-09-10T04:30:56.622Z,76.50
2017-09-10T04:33:24.742Z,76.40
2017-09-10T04:35:52.838Z,75.80
2017-09-10T04:38:20.987Z,74.50
2017-09-10T04:40:49.162Z,74.60
2017-09-10T04:43:17.266Z,74.30
2017-09-10T04:45:46.127Z,74.00
2017-09-10T04:48:14.202Z,72.70
2017-09-10T04:50:42.370Z,71.20
2017-09-10T04:53:10.442Z,70.60
2017-09-10T04:55:38.618Z,70.60
2017-09-10T04:58:06.790Z,69.90
2017-09-10T05:00:34.870Z,70.60
2017-09-10T05:03:02.942Z,71.20
2017-09-10T05:05:31.110Z,70.40
2017-09-10T05:07:59.582Z,70.70
2017-09-10T05:10:27.770Z,70.40
2017-09-10T05:12:56.605Z,70.70
2017-09-10T05:15:25.102Z,70.10
2017-09-10T05:17:53.211Z,70.10
2017-09-10T05:20:21.306Z,72.10
2017-09-10T05:22:49.455Z,73.10
2017-09-10T05:25:17.636Z,74.70
2017-09-10T05:27:45.726Z,75.70
2017-09-10T05:30:14.282Z,76.10
2017-09-10T05:32:42.462Z,76.70
2017-09-10T05:35:11.350Z,77.30
2017-09-10T05:37:39.447Z,77.80
2017-09-10T05:40:07.523Z,78.10
2017-09-10T05:42:36.402Z,77.00
2017-09-10T05:45:04.970Z,77.10
2017-09-10T05:47:33.143Z,76.60
2017-09-10T05:50:01.631Z,76.10
2017-09-10T05:52:29.726Z,76.60
2017-09-10T05:54:58.222Z,76.50
2017-09-10T05:57:27.122Z,76.60
2017-09-10T05:59:56.062Z,76.10
2017-09-10T06:02:24.238Z,74.20
2017-09-10T06:04:52.410Z,73.60
2017-09-10T06:07:20.894Z,73.20
2017-09-10T06:09:49.070Z,71.30
2017-09-10T06:12:17.245Z,72.00
2017-09-10T06:14:45.347Z,73.00
2017-09-10T06:17:13.898Z,73.70
2017-09-10T06:19:41.978Z,73.60
2017-09-10T06:22:10.142Z,73.70
2017-09-10T06:24:38.328Z,73.10
2017-09-10T06:27:06.495Z,73.30
2017-09-10T06:29:34.666Z,72.70
2017-09-10T06:32:02.844Z,71.40
2017-09-10T06:34:30.917Z,71.00
2017-09-10T06:36:59.398Z,71.40
2017-09-10T06:39:27.584Z,72.60
2017-09-10T06:41:55.647Z,72.50
2017-09-10T06:44:23.742Z,71.20
2017-09-10T06:46:52.583Z,71.10
2017-09-10T06:49:20.778Z,68.60
2017-09-10T06:51:48.950Z,68.20
2017-09-10T06:54:17.130Z,68.90
2017-09-10T06:56:46.018Z,69.00
2017-09-10T06:59:14.190Z,68.40
2017-09-10T07:01:42.287Z,67.00
2017-09-10T07:04:10.438Z,66.00
2017-09-10T07:06:39.318Z,65.80
2017-09-10T07:09:07.391Z,65.50
2017-09-10T07:11:35.462Z,65.50
2017-09-10T07:14:03.554Z,65.60
2017-09-10T07:16:32.401Z,65.00
2017-09-10T07:19:00.511Z,63.50
2017-09-10T07:21:28.982Z,62.60
2017-09-10T07:23:57.474Z,62.60
2017-09-10T07:26:26.451Z,61.40
2017-09-10T07:28:55.358Z,62.10
2017-09-10T07:31:23.531Z,61.30
2017-09-10T07:33:52.394Z,61.30
2017-09-10T07:36:20.905Z,61.30
2017-09-10T07:38:49.502Z,61.40
2017-09-10T07:41:18.383Z,60.90
2017-09-10T07:43:47.298Z,60.20
2017-09-10T07:46:16.174Z,60.00
2017-09-10T07:48:44.252Z,58.40
2017-09-10T07:51:12.392Z,57.50
2017-09-10T07:53:41.210Z,56.10
2017-09-10T07:56:09.331Z,54.80
2017-09-10T07:58:37.406Z,52.70
2017-09-10T08:01:06.328Z,52.70
2017-09-10T08:03:34.429Z,52.20
2017-09-10T08:06:02.906Z,51.50
2017-09-10T08:08:31.058Z,50.90
2017-09-10T08:10:59.939Z,50.70
2017-09-10T08:13:28.015Z,50.30
2017-09-10T08:15:56.875Z,49.40
2017-09-10T08:18:24.950Z,49.50
2017-09-10T08:20:53.054Z,50.40
2017-09-10T08:23:21.134Z,49.50
2017-09-10T08:25:49.974Z,49.40
2017-09-10T08:28:18.470Z,50.60
2017-09-10T08:30:46.565Z,50.70
2017-09-10T08:33:14.634Z,52.20
2017-09-10T08:35:42.818Z,53.90
2017-09-10T08:38:11.291Z,54.20
2017-09-10T08:40:40.126Z,54.20
2017-09-10T08:43:08.262Z,55.20
2017-09-10T08:45:36.442Z,54.60
2017-09-10T08:48:04.619Z,54.60
2017-09-10T08:50:33.477Z,52.50
2017-09-10T08:53:01.675Z,50.60
2017-09-10T08:55:29.749Z,48.50
2017-09-10T08:57:57.827Z,45.90
2017-09-10T09:00:25.922Z,45.90
2017-09-10T09:02:54.782Z,44.40
2017-09-10T09:05:22.958Z,44.50
2017-09-10T09:07:51.430Z,44.80
2017-09-10T09:10:19.615Z,43.50
2017-09-10T09:12:47.718Z,43.30
2017-09-10T09:15:16.562Z,43.80
2017-09-10T09:17:45.060Z,42.50
2017-09-10T09:20:13.662Z,41.60
2017-09-10T09:22:42.227Z,41.30
2017-09-10T09:25:10.403Z,40.70
2017-09-10T09:27:38.494Z,40.30
2017-09-10T09:30:06.590Z,38.00
2017-09-10T09:32:35.446Z,38.40
2017-09-10T09:35:03.526Z,38.20
2017-09-10T09:37:32.502Z,37.60
2017-09-10T09:40:00.974Z,36.80
2017-09-10T09:42:29.462Z,38.20
2017-09-10T09:44:57.562Z,37.80
2017-09-10T09:47:26.053Z,37.90
2017-09-10T09:49:54.891Z,38.40
2017-09-10T09:52:23.011Z,37.30
2017-09-10T09:54:51.571Z,36.20
2017-09-10T09:57:19.638Z,36.00
2017-09-10T09:59:47.738Z,35.40
2017-09-10T10:02:15.843Z,35.90
2017-09-10T10:04:43.918Z,34.50
2017-09-10T10:07:12.035Z,34.60
2017-09-10T10:09:40.112Z,31.60
2017-09-10T10:12:08.587Z,33.20
2017-09-10T10:14:36.683Z,31.50
2017-09-10T10:17:05.546Z,31.90
2017-09-10T10:19:33.730Z,32.60
2017-09-10T10:22:01.802Z,32.70
2017-09-10T10:24:29.886Z,32.80
2017-09-10T10:26:58.043Z,32.70
2017-09-10T10:29:26.226Z,30.80
2017-09-10T10:31:54.322Z,29.20
2017-09-10T10:34:23.274Z,29.00
2017-09-10T10:36:51.369Z,29.50
2017-09-10T10:39:19.518Z,30.30
2017-09-10T10:41:47.690Z,29.20
2017-09-10T10:44:15.767Z,28.60
2017-09-10T10:46:43.839Z,27.90
2017-09-10T10:49:12.010Z,28.30
2017-09-10T10:51:40.086Z,30.40
2017-09-10T10:54:08.158Z,29.90
2017-09-10T10:56:36.335Z,30.10
2017-09-10T10:59:04.406Z,29.70
2017-09-10T11:01:32.578Z,30.00
2017-09-10T11:04:00.754Z,29.40
2017-09-10T11:06:28.827Z,29.10
2017-09-10T11:08:56.994Z,28.60
2017-09-10T11:11:25.174Z,29.30
2017-09-10T11:13:53.346Z,29.10
2017-09-10T11:16:22.186Z,29.60
2017-09-10T11:18:50.286Z,31.20
2017-09-10T11:21:19.129Z,31.00
2017-09-10T11:23:47.966Z,33.20
2017-09-10T11:26:16.070Z,33.50
2017-09-10T11:28:44.147Z,33.50
2017-09-10T11:31:12.227Z,33.70
2017-09-10T11:33:40.317Z,34.00
2017-09-10T11:36:09.158Z,34.60
2017-09-10T11:38:37.266Z,34.40
2017-09-10T11:41:05.338Z,34.00
2017-09-10T11:43:34.185Z,35.10
2017-09-10T11:46:02.283Z,33.50
2017-09-10T11:48:30.451Z,32.90
2017-09-10T11:50:58.559Z,32.90
2017-09-10T11:53:27.415Z,33.10
2017-09-10T11:55:55.582Z,31.60
2017-09-10T11:58:23.759Z,32.70
2017-09-10T12:00:51.840Z,29.00
2017-09-10T12:03:19.919Z,29.90
2017-09-10T12:05:48.018Z,30.70
2017-09-10T12:08:16.856Z,32.00
2017-09-10T12:10:44.951Z,32.30
2017-09-10T12:13:13.046Z,32.20
2017-09-10T12:15:41.547Z,33.30
2017-09-10T12:18:10.416Z,33.50
2017-09-10T12:20:38.501Z,32.80
2017-09-10T12:23:07.362Z,33.60
2017-09-10T12:25:35.857Z,30.70
2017-09-10T12:28:03.951Z,30.70
2017-09-10T12:30:32.047Z,29.90
2017-09-10T12:33:00.123Z,25.60
2017-09-10T12:35:28.978Z,22.60
2017-09-10T12:37:57.822Z,21.80
2017-09-10T12:40:26.014Z,20.50
2017-09-10T12:42:54.448Z,19.70
2017-09-10T12:45:22.554Z,20.60
2017-09-10T12:47:51.121Z,19.40
2017-09-10T12:50:19.550Z,18.30
2017-09-10T12:52:48.410Z,17.90
2017-09-10T12:55:16.487Z,17.00
2017-09-10T12:57:44.583Z,17.00
2017-09-10T13:00:13.054Z,19.50
2017-09-10T13:02:41.546Z,19.20
2017-09-10T13:05:09.672Z,17.90
2017-09-10T13:07:37.726Z,18.20
2017-09-10T13:10:05.802Z,17.80
2017-09-10T13:12:33.898Z,17.40
2017-09-10T13:15:01.991Z,18.40
2017-09-10T13:17:30.086Z,20.70
2017-09-10T13:19:58.934Z,21.40
2017-09-10T13:22:27.774Z,19.60
2017-09-10T13:24:56.638Z,18.90
2017-09-10T13:27:25.113Z,17.60
2017-09-10T13:29:53.250Z,18.40
2017-09-10T13:32:21.330Z,18.90
2017-09-10T13:34:49.406Z,18.30
2017-09-10T13:37:17.511Z,16.50
2017-09-10T13:39:45.592Z,14.90
2017-09-10T13:42:14.436Z,14.20
2017-09-10T13:44:42.538Z,13.80
2017-09-10T13:47:10.615Z,12.80
2017-09-10T13:49:38.689Z,13.40
2017-09-10T13:52:07.223Z,13.30
2017-09-10T13:54:35.707Z,13.10
2017-09-10T13:57:03.771Z,13.40
2017-09-10T13:59:31.863Z,13.70
2017-09-10T14:01:59.958Z,12.80
2017-09-10T14:04:28.030Z,13.90
2017-09-10T14:06:56.538Z,13.90
2017-09-10T14:09:25.370Z,14.40
2017-09-10T14:11:53.447Z,13.70
2017-09-10T14:14:21.544Z,12.90
2017-09-10T14:16:50.011Z,12.60
2017-09-10T14:19:18.511Z,15.90
2017-09-10T14:21:46.585Z,17.00
2017-09-10T14:24:14.662Z,16.70
2017-09-10T14:26:42.778Z,16.10
2017-09-10T14:29:10.870Z,17.60
2017-09-10T14:31:39.419Z,16.90
2017-09-10T14:34:08.251Z,16.00
2017-09-10T14:36:36.326Z,16.60
2017-09-10T14:39:04.422Z,18.80
2017-09-10T14:41:32.566Z,21.90
2017-09-10T14:44:01.402Z,22.40
2017-09-10T14:46:30.244Z,20.70
2017-09-10T14:48:58.314Z,18.30
2017-09-10T14:51:27.183Z,16.90
2017-09-10T14:53:55.280Z,16.60
2017-09-10T14:56:23.335Z,17.10
2017-09-10T14:58:51.831Z,15.80
2017-09-10T15:01:20.297Z,16.20
2017-09-10T15:03:48.374Z,15.60
2017-09-10T15:06:16.480Z,15.90
2017-09-10T15:08:45.044Z,15.50
2017-09-10T15:11:13.850Z,16.40
2017-09-10T15:13:41.940Z,15.50
2017-09-10T15:16:11.353Z,16.20
2017-09-10T15:18:40.218Z,16.30
2017-09-10T15:21:09.059Z,15.20
2017-09-10T15:23:37.159Z,14.60
2017-09-10T15:26:05.239Z,15.10
2017-09-10T15:28:33.346Z,15.00
2017-09-10T15:31:01.422Z,14.90
2017-09-10T15:33:30.263Z,14.40
2017-09-10T15:35:58.408Z,14.60
2017-09-10T15:38:27.227Z,15.10
2017-09-10T15:40:55.730Z,14.40
2017-09-10T15:43:24.571Z,14.10
2017-09-10T15:45:53.155Z,15.10
2017-09-10T15:48:21.255Z,15.60
2017-09-10T15:50:50.147Z,16.80
2017-09-10T15:53:19.590Z,17.30
2017-09-10T15:55:47.794Z,17.70
2017-09-10T15:58:15.879Z,18.20
2017-09-10T16:00:44.382Z,18.00
2017-09-10T16:03:12.455Z,17.50
2017-09-10T16:05:40.536Z,17.10
2017-09-10T16:08:08.655Z,16.90
2017-09-10T16:10:36.730Z,17.20
2017-09-10T16:13:05.582Z,17.80
2017-09-10T16:15:34.082Z,18.30
2017-09-10T16:18:02.551Z,18.70
2017-09-10T16:20:30.646Z,19.60
2017-09-10T16:22:59.489Z,20.10
2017-09-10T16:25:28.359Z,20.30
2017-09-10T16:27:58.823Z,20.70
2017-09-10T16:30:27.316Z,21.60
2017-09-10T16:32:56.159Z,22.50
2017-09-10T16:35:25.066Z,22.80
2017-09-10T16:37:53.175Z,23.90
2017-09-10T16:40:21.262Z,24.20
2017-09-10T16:42:49.351Z,24.50
2017-09-10T16:45:18.203Z,24.60
2017-09-10T16:47:47.064Z,25.30
2017-09-10T16:50:15.136Z,26.20
2017-09-10T16:52:43.637Z,26.80
2017-09-10T16:55:11.730Z,27.80
2017-09-10T16:57:39.803Z,28.30
2017-09-10T17:00:07.938Z,28.20
2017-09-10T17:02:36.009Z,28.70
2017-09-10T17:05:04.082Z,29.00
2017-09-10T17:07:32.183Z,29.40
2017-09-10T17:10:00.271Z,30.00
2017-09-10T17:12:29.118Z,30.00
2017-09-10T17:14:57.978Z,30.00
2017-09-10T17:17:26.055Z,30.20
2017-09-10T17:19:54.919Z,30.50
2017-09-10T17:22:23.760Z,31.70
2017-09-10T17:24:51.857Z,31.80
2017-09-10T17:27:19.951Z,31.50
2017-09-10T17:29:48.421Z,32.30
2017-09-10T17:32:16.556Z,32.40
2017-09-10T17:34:45.361Z,33.20
2017-09-10T17:37:13.466Z,32.90
2017-09-10T17:39:42.308Z,33.50
2017-09-10T17:42:10.857Z,33.50
2017-09-10T17:44:38.899Z,34.10
2017-09-10T17:47:06.970Z,33.90
2017-09-10T17:49:35.062Z,34.60
2017-09-10T17:52:03.531Z,34.70
2017-09-10T17:54:31.602Z,35.50
2017-09-10T17:57:00.095Z,36.00
2017-09-10T17:59:28.934Z,36.50
2017-09-10T18:01:57.106Z,37.50
2017-09-10T18:04:25.166Z,37.40
2017-09-10T18:06:53.643Z,38.60
2017-09-10T18:09:21.739Z,39.40
2017-09-10T18:11:49.818Z,39.50
2017-09-10T18:14:18.685Z,40.30
2017-09-10T18:16:47.714Z,40.10
2017-09-10T18:19:16.998Z,40.80
2017-09-10T18:21:45.101Z,40.60
2017-09-10T18:24:13.944Z,42.40
2017-09-10T18:26:42.020Z,41.00
2017-09-10T18:29:10.113Z,41.30
2017-09-10T18:31:38.186Z,41.40
2017-09-10T18:34:06.287Z,42.00
2017-09-10T18:36:35.186Z,42.90
2017-09-10T18:39:03.243Z,43.40
2017-09-10T18:41:32.110Z,42.70
2017-09-10T18:44:00.970Z,42.30
2017-09-10T18:46:29.070Z,41.80
2017-09-10T18:48:57.142Z,41.90
2017-09-10T18:51:25.242Z,42.10
2017-09-10T18:53:54.126Z,42.70
2017-09-10T18:56:22.203Z,42.60
2017-09-10T18:58:50.670Z,43.50
2017-09-10T19:01:19.170Z,44.10
2017-09-10T19:03:48.017Z,44.70
2017-09-10T19:06:16.094Z,44.20
2017-09-10T19:08:44.210Z,44.40
2017-09-10T19:11:13.054Z,46.40
2017-09-10T19:13:41.526Z,45.30
2017-09-10T19:16:09.618Z,45.70
2017-09-10T19:18:37.693Z,45.70
2017-09-10T19:21:06.582Z,46.00
2017-09-10T19:23:35.035Z,46.40
2017-09-10T19:26:03.882Z,46.00
2017-09-10T19:28:32.746Z,47.30
2017-09-10T19:31:01.615Z,46.20
2017-09-10T19:33:30.082Z,46.20
2017-09-10T19:35:58.186Z,46.20
2017-09-10T19:38:26.654Z,45.60
2017-09-10T19:40:54.727Z,45.20
2017-09-10T19:43:22.834Z,44.60
2017-09-10T19:45:51.709Z,44.10
2017-09-10T19:48:19.778Z,44.30
2017-09-10T19:50:47.874Z,44.80
2017-09-10T19:53:15.951Z,44.60
2017-09-10T19:55:44.059Z,45.40
2017-09-10T19:58:12.526Z,45.50
2017-09-10T20:00:40.598Z,45.80
2017-09-10T20:03:09.458Z,45.60
2017-09-10T20:05:38.311Z,47.00
2017-09-10T20:08:06.405Z,46.20
2017-09-10T20:10:34.494Z,46.10
2017-09-10T20:13:02.570Z,46.20
2017-09-10T20:15:30.681Z,45.70
2017-09-10T20:17:59.155Z,45.40
2017-09-10T20:20:27.226Z,45.40
2017-09-10T20:22:55.378Z,45.40
2017-09-10T20:25:23.863Z,45.90
2017-09-10T20:27:52.698Z,48.00
2017-09-10T20:30:20.791Z,46.00
2017-09-10T20:32:49.258Z,46.30
2017-09-10T20:35:18.127Z,46.60
2017-09-10T20:37:46.599Z,46.20
2017-09-10T20:40:14.674Z,47.60
2017-09-10T20:42:42.779Z,47.60
2017-09-10T20:45:10.854Z,46.50
2017-09-10T20:47:38.934Z,46.50
2017-09-10T20:50:07.030Z,46.80
2017-09-10T20:52:35.872Z,47.50
2017-09-10T20:55:03.954Z,47.20
2017-09-10T20:57:32.147Z,47.60
2017-09-10T21:00:00.310Z,46.70
2017-09-10T21:02:28.414Z,46.60
2017-09-10T21:04:57.270Z,47.70
2017-09-10T21:07:25.746Z,46.70
2017-09-10T21:09:53.842Z,47.20
2017-09-10T21:12:21.918Z,47.50
2017-09-10T21:14:50.414Z,47.90
2017-09-10T21:17:19.270Z,48.30
2017-09-10T21:19:47.442Z,48.10
2017-09-10T21:22:15.540Z,48.30
2017-09-10T21:27:14.166Z,49.30
2017-09-10T21:29:43.019Z,48.60
2017-09-10T21:32:11.186Z,48.50
2017-09-10T21:34:39.262Z,47.90
2017-09-10T21:37:07.430Z,47.80
2017-09-10T21:39:35.521Z,48.80
2017-09-10T21:42:03.678Z,48.90
2017-09-10T21:44:31.858Z,49.10
2017-09-10T21:46:59.959Z,49.40
2017-09-10T21:49:28.803Z,50.10
2017-09-10T21:51:56.894Z,49.60
2017-09-10T21:54:25.062Z,50.20
2017-09-10T21:56:53.230Z,50.50
2017-09-10T21:59:21.814Z,50.70
2017-09-10T22:01:49.989Z,50.80
2017-09-10T22:04:18.462Z,51.20
2017-09-10T22:06:46.650Z,51.30
2017-09-10T22:09:14.750Z,51.60
2017-09-10T22:11:43.298Z,52.10
2017-09-10T22:14:11.375Z,51.80
2017-09-10T22:16:39.550Z,51.80
2017-09-10T22:19:07.723Z,51.60
2017-09-10T22:21:35.826Z,52.60
2017-09-10T22:24:04.662Z,53.30
2017-09-10T22:26:33.894Z,52.60
2017-09-10T22:29:01.993Z,51.90
2017-09-10T22:31:30.483Z,52.60
2017-09-10T22:33:59.322Z,52.90
2017-09-10T22:36:27.506Z,53.40
2017-09-10T22:38:55.678Z,53.10
2017-09-10T22:41:23.849Z,53.70
2017-09-10T22:43:52.035Z,53.70
2017-09-10T22:46:20.135Z,52.50
2017-09-10T22:48:48.978Z,53.60
2017-09-10T22:51:17.854Z,53.30
2017-09-10T22:53:46.686Z,52.50
2017-09-10T22:56:14.843Z,52.10
2017-09-10T22:58:43.014Z,52.00
2017-09-10T23:01:11.091Z,52.40
2017-09-10T23:03:39.262Z,52.10
2017-09-10T23:06:07.433Z,52.40
2017-09-10T23:08:35.506Z,53.10
2017-09-10T23:11:03.606Z,53.40
2017-09-10T23:13:31.761Z,53.30
2017-09-10T23:15:59.929Z,53.60
2017-09-10T23:18:29.230Z,53.40
2017-09-10T23:20:57.327Z,52.50
2017-09-10T23:23:25.882Z,53.40
2017-09-10T23:25:54.066Z,53.30
2017-09-10T23:28:22.238Z,53.30
2017-09-10T23:30:50.413Z,54.30
2017-09-10T23:33:18.582Z,54.50
2017-09-10T23:35:46.658Z,55.10
2017-09-10T23:38:14.832Z,55.50
2017-09-10T23:40:43.003Z,55.30
2017-09-10T23:43:11.490Z,55.70
2017-09-10T23:45:39.962Z,55.70
2017-09-10T23:48:08.139Z,56.00
2017-09-10T23:50:36.314Z,55.90
2017-09-10T23:53:04.391Z,55.90
2017-09-10T23:55:32.567Z,57.00
2017-09-10T23:58:00.734Z,55.40
